createdAt,value
2018-11-05T00:02:00.152Z,32.08
2018-11-05T00:04:28.228Z,40.33
2018-11-05T00:06:56.292Z,28.90
2018-11-05T00:09:24.368Z,31.77
2018-11-05T00:11:52.440Z,24.95
2018-11-05T00:14:21.092Z,31.45
2018-11-05T00:16:50.278Z,29.95
2018-11-05T00:19:19.580Z,25.35
2018-11-05T00:21:47.768Z,32.38
2018-11-05T00:24:15.836Z,30.20
2018-11-05T00:26:44.261Z,25.27
2018-11-05T00:29:12.322Z,33.50
2018-11-05T00:31:40.476Z,26.52
2018-11-05T00:34:08.660Z,30.90
2018-11-05T00:36:36.718Z,31.20
2018-11-05T00:39:07.479Z,26.37
2018-11-05T00:41:35.860Z,37.03
2018-11-05T00:44:03.945Z,30.00
2018-11-05T00:46:31.995Z,19.57
2018-11-05T00:49:00.076Z,25.50
2018-11-05T00:51:28.137Z,26.77
2018-11-05T00:53:56.240Z,29.42
2018-11-05T00:56:25.100Z,29.45
2018-11-05T00:58:53.165Z,29.30
2018-11-05T01:01:21.261Z,28.38
2018-11-05T01:03:49.361Z,32.13
2018-11-05T01:06:19.571Z,29.60
2018-11-05T01:08:47.702Z,22.82
2018-11-05T01:11:15.769Z,25.55
2018-11-05T01:13:43.840Z,31.52
2018-11-05T01:16:11.902Z,32.17
2018-11-05T01:18:39.979Z,31.20
2018-11-05T01:21:08.124Z,29.67
2018-11-05T01:23:36.192Z,29.37
2018-11-05T01:26:04.332Z,26.27
2018-11-05T01:28:32.400Z,32.65
2018-11-05T01:31:00.472Z,29.55
2018-11-05T01:33:28.544Z,30.40
2018-11-05T01:35:56.608Z,28.60
2018-11-05T01:38:24.668Z,31.57
2018-11-05T01:40:52.736Z,26.95
2018-11-05T01:43:20.844Z,28.92
2018-11-05T01:45:48.959Z,31.50
2018-11-05T01:48:17.016Z,28.80
2018-11-05T01:50:45.087Z,26.57
2018-11-05T01:53:13.144Z,34.03
2018-11-05T01:55:41.216Z,25.80
2018-11-05T01:58:09.313Z,35.60
2018-11-05T02:00:37.392Z,30.10
2018-11-05T02:03:05.570Z,29.90
2018-11-05T02:05:33.644Z,27.85
2018-11-05T02:08:01.717Z,32.63
2018-11-05T02:10:29.876Z,27.35
2018-11-05T02:12:57.862Z,25.08
2018-11-05T02:15:25.932Z,28.98
2018-11-05T02:17:54.005Z,30.57
2018-11-05T02:20:22.086Z,24.87
2018-11-05T02:22:50.139Z,27.48
2018-11-05T02:25:18.213Z,29.85
2018-11-05T02:27:46.277Z,28.15
2018-11-05T02:30:16.372Z,36.13
2018-11-05T02:32:44.644Z,23.73
2018-11-05T02:35:13.536Z,28.83
2018-11-05T02:37:42.420Z,30.15
2018-11-05T02:40:12.739Z,38.30
2018-11-05T02:42:41.526Z,30.50
2018-11-05T02:45:10.931Z,27.70
2018-11-05T02:47:38.998Z,24.63
2018-11-05T02:50:08.299Z,32.40
2018-11-05T02:52:36.488Z,30.55
2018-11-05T02:55:04.742Z,26.52
2018-11-05T02:57:32.846Z,28.45
2018-11-05T03:00:00.922Z,27.20
2018-11-05T03:02:29.045Z,24.92
2018-11-05T03:04:57.119Z,30.95
2018-11-05T03:07:25.209Z,31.85
2018-11-05T03:09:53.380Z,30.82
2018-11-05T03:12:21.431Z,28.35
2018-11-05T03:14:49.503Z,28.92
2018-11-05T03:17:17.613Z,26.20
2018-11-05T03:19:45.660Z,29.77
2018-11-05T03:22:13.736Z,23.90
2018-11-05T03:24:41.860Z,28.30
2018-11-05T03:27:09.935Z,35.90
2018-11-05T03:29:38.014Z,24.95
2018-11-05T03:32:06.402Z,30.95
2018-11-05T03:34:34.416Z,37.28
2018-11-05T03:37:02.495Z,33.58
2018-11-05T03:39:30.533Z,18.45
2018-11-05T03:41:58.616Z,23.67
2018-11-05T03:44:26.693Z,32.98
2018-11-05T03:46:54.756Z,39.88
2018-11-05T03:49:22.824Z,30.23
2018-11-05T03:51:50.888Z,33.58
2018-11-05T03:54:18.948Z,25.12
2018-11-05T03:56:47.095Z,32.38
2018-11-05T03:59:15.089Z,27.62
2018-11-05T04:01:43.188Z,26.90
2018-11-05T04:04:11.252Z,30.50
2018-11-05T04:06:39.362Z,20.45
2018-11-05T04:09:09.025Z,20.85
2018-11-05T04:11:37.104Z,34.20
2018-11-05T04:14:05.172Z,32.75
2018-11-05T04:16:33.521Z,25.08
2018-11-05T04:19:01.587Z,25.65
2018-11-05T04:21:34.748Z,31.35
2018-11-05T04:24:02.828Z,23.20
2018-11-05T04:26:30.916Z,21.60
2018-11-05T04:28:58.981Z,28.47
2018-11-05T04:31:27.036Z,23.00
2018-11-05T04:33:55.109Z,22.98
2018-11-05T04:36:23.201Z,31.62
2018-11-05T04:38:51.255Z,24.43
2018-11-05T04:41:19.325Z,25.85
2018-11-05T04:43:47.436Z,25.65
2018-11-05T04:46:15.480Z,26.05
2018-11-05T04:48:43.552Z,21.33
2018-11-05T04:51:11.656Z,32.90
2018-11-05T04:53:39.704Z,23.60
2018-11-05T04:56:07.975Z,29.20
2018-11-05T04:58:36.079Z,19.55
2018-11-05T05:01:04.181Z,30.08
2018-11-05T05:03:32.281Z,24.70
2018-11-05T05:06:00.344Z,32.00
2018-11-05T05:08:28.401Z,28.90
2018-11-05T05:10:56.483Z,29.15
2018-11-05T05:13:24.555Z,22.45
2018-11-05T05:15:52.669Z,29.30
2018-11-05T05:18:20.739Z,29.65
2018-11-05T05:20:48.812Z,30.95
2018-11-05T05:23:16.989Z,30.85
2018-11-05T05:25:45.098Z,32.30
2018-11-05T05:28:13.270Z,24.98
2018-11-05T05:30:41.348Z,30.10
2018-11-05T05:33:09.461Z,24.30
2018-11-05T05:35:37.495Z,28.57
2018-11-05T05:38:05.833Z,25.25
2018-11-05T05:40:33.969Z,33.00
2018-11-05T05:43:02.037Z,29.35
2018-11-05T05:45:30.178Z,29.60
2018-11-05T05:47:58.257Z,29.02
2018-11-05T05:50:26.329Z,31.27
2018-11-05T05:52:54.416Z,29.70
2018-11-05T05:55:22.492Z,25.00
2018-11-05T05:57:50.660Z,31.77
2018-11-05T06:00:19.016Z,26.60
2018-11-05T06:02:47.103Z,27.07
2018-11-05T06:05:15.656Z,33.53
2018-11-05T06:07:44.140Z,27.87
2018-11-05T06:10:13.328Z,28.42
2018-11-05T06:12:41.417Z,25.35
2018-11-05T06:15:11.417Z,26.57
2018-11-05T06:17:39.520Z,33.25
2018-11-05T06:20:10.219Z,32.60
2018-11-05T06:22:38.304Z,25.45
2018-11-05T06:25:07.197Z,29.60
2018-11-05T06:27:35.336Z,36.70
2018-11-05T06:30:03.820Z,25.23
2018-11-05T06:32:31.945Z,28.45
2018-11-05T06:35:00.015Z,28.17
2018-11-05T06:37:28.080Z,31.57
2018-11-05T06:39:56.159Z,35.78
2018-11-05T06:42:24.237Z,32.25
2018-11-05T06:44:52.358Z,25.00
2018-11-05T06:47:20.435Z,33.08
2018-11-05T06:49:48.596Z,27.42
2018-11-05T06:52:16.620Z,26.02
2018-11-05T06:54:44.725Z,30.95
2018-11-05T06:57:12.811Z,25.45
2018-11-05T06:59:40.880Z,26.87
2018-11-05T07:02:08.952Z,26.90
2018-11-05T07:04:37.113Z,30.43
2018-11-05T07:07:05.777Z,26.85
2018-11-05T07:09:33.865Z,23.38
2018-11-05T07:12:01.989Z,31.75
2018-11-05T07:14:30.077Z,31.52
2018-11-05T07:16:58.174Z,25.20
2018-11-05T07:19:26.324Z,28.35
2018-11-05T07:21:54.344Z,30.40
2018-11-05T07:24:22.469Z,28.67
2018-11-05T07:26:50.563Z,32.88
2018-11-05T07:29:18.624Z,36.03
2018-11-05T07:31:46.726Z,27.50
2018-11-05T07:34:15.040Z,38.05
2018-11-05T07:36:43.092Z,30.65
2018-11-05T07:39:12.382Z,34.40
2018-11-05T07:41:40.630Z,29.10
2018-11-05T07:44:09.112Z,29.07
2018-11-05T07:46:37.219Z,28.32
2018-11-05T07:49:05.293Z,26.75
2018-11-05T07:51:33.496Z,30.65
2018-11-05T07:54:01.577Z,34.78
2018-11-05T07:56:29.655Z,23.62
2018-11-05T07:58:57.766Z,27.60
2018-11-05T08:01:25.868Z,32.60
2018-11-05T08:03:53.989Z,31.65
2018-11-05T08:06:22.496Z,25.35
2018-11-05T08:08:50.579Z,29.55
2018-11-05T08:11:18.697Z,25.43
2018-11-05T08:13:46.775Z,25.35
2018-11-05T08:16:14.930Z,28.55
2018-11-05T08:18:43.374Z,25.85
2018-11-05T08:21:11.456Z,27.37
2018-11-05T08:23:39.536Z,29.85
2018-11-05T08:26:07.623Z,30.25
2018-11-05T08:28:35.721Z,34.00
2018-11-05T08:31:03.847Z,29.95
2018-11-05T08:33:31.924Z,33.28
2018-11-05T08:36:00.011Z,33.38
2018-11-05T08:38:28.069Z,29.60
2018-11-05T08:40:56.184Z,29.52
2018-11-05T08:43:24.257Z,28.20
2018-11-05T08:45:52.564Z,32.58
2018-11-05T08:48:20.884Z,23.77
2018-11-05T08:50:49.078Z,26.68
2018-11-05T08:53:17.044Z,30.27
2018-11-05T08:55:45.131Z,27.52
2018-11-05T08:58:13.204Z,29.12
2018-11-05T09:00:46.769Z,30.17
2018-11-05T09:03:14.815Z,34.65
2018-11-05T09:05:42.892Z,30.02
2018-11-05T09:08:10.948Z,29.45
2018-11-05T09:10:39.206Z,31.97
2018-11-05T09:13:07.141Z,26.42
2018-11-05T09:15:35.217Z,28.05
2018-11-05T09:18:03.383Z,35.23
2018-11-05T09:20:31.439Z,25.45
2018-11-05T09:22:59.501Z,32.63
2018-11-05T09:25:27.576Z,29.52
2018-11-05T09:27:55.716Z,35.38
2018-11-05T09:30:24.635Z,31.37
2018-11-05T09:32:52.887Z,41.88
2018-11-05T09:35:20.960Z,28.73
2018-11-05T09:37:49.034Z,31.12
2018-11-05T09:40:19.391Z,28.10
2018-11-05T09:42:47.981Z,27.10
2018-11-05T09:45:22.052Z,26.27
2018-11-05T09:47:50.119Z,34.43
2018-11-05T09:50:18.970Z,28.30
2018-11-05T09:52:47.025Z,24.50
2018-11-05T09:55:15.569Z,29.67
2018-11-05T09:57:43.654Z,28.38
2018-11-05T10:00:18.506Z,28.10
2018-11-05T10:02:52.207Z,32.42
2018-11-05T10:05:20.362Z,27.87
2018-11-05T10:07:48.296Z,28.70
2018-11-05T10:10:17.178Z,26.95
2018-11-05T10:12:45.377Z,34.15
2018-11-05T10:15:14.789Z,32.38
2018-11-05T10:17:42.940Z,32.13
2018-11-05T10:20:21.804Z,34.38
2018-11-05T10:22:49.864Z,30.55
2018-11-05T10:25:18.187Z,33.10
2018-11-05T10:27:46.508Z,35.13
2018-11-05T10:30:16.935Z,24.67
2018-11-05T10:32:45.097Z,28.87
2018-11-05T10:35:14.064Z,27.70
2018-11-05T10:37:42.144Z,29.75
2018-11-05T10:40:12.534Z,31.77
2018-11-05T10:42:40.856Z,27.52
2018-11-05T10:45:10.239Z,28.55
2018-11-05T10:47:38.832Z,23.95
2018-11-05T10:50:07.536Z,24.55
2018-11-05T10:52:35.900Z,28.25
2018-11-05T10:55:04.012Z,28.40
2018-11-05T10:57:32.086Z,23.50
2018-11-05T11:00:00.165Z,27.02
2018-11-05T11:02:33.697Z,23.98
2018-11-05T11:05:01.771Z,30.12
2018-11-05T11:07:29.846Z,24.92
2018-11-05T11:09:57.924Z,36.10
2018-11-05T11:12:26.011Z,36.10
2018-11-05T11:14:54.063Z,28.62
2018-11-05T11:17:22.136Z,27.00
2018-11-05T11:19:50.189Z,26.05
2018-11-05T11:22:18.276Z,31.62
2018-11-05T11:24:46.349Z,26.40
2018-11-05T11:27:14.432Z,30.08
2018-11-05T11:29:42.517Z,28.20
2018-11-05T11:32:10.588Z,28.73
2018-11-05T11:34:38.653Z,29.05
2018-11-05T11:37:06.822Z,33.75
2018-11-05T11:39:34.865Z,24.30
2018-11-05T11:42:03.017Z,32.25
2018-11-05T11:44:31.031Z,29.45
2018-11-05T11:46:59.084Z,27.07
2018-11-05T11:49:27.160Z,28.98
2018-11-05T11:51:55.234Z,29.20
2018-11-05T11:54:23.336Z,30.30
2018-11-05T11:56:51.457Z,31.30
2018-11-05T11:59:19.575Z,31.23
2018-11-05T12:01:53.214Z,23.60
2018-11-05T12:04:21.481Z,27.70
2018-11-05T12:06:49.622Z,33.10
2018-11-05T12:09:17.700Z,29.00
2018-11-05T12:11:45.782Z,38.23
2018-11-05T12:14:13.962Z,33.63
2018-11-05T12:16:42.325Z,24.23
2018-11-05T12:19:10.437Z,25.57
2018-11-05T12:21:38.523Z,30.08
2018-11-05T12:24:06.868Z,34.85
2018-11-05T12:26:35.611Z,38.38
2018-11-05T12:29:04.062Z,28.98
2018-11-05T12:31:32.376Z,36.68
2018-11-05T12:34:00.473Z,23.45
2018-11-05T12:36:28.541Z,35.52
2018-11-05T12:38:56.730Z,33.75
2018-11-05T12:41:25.034Z,28.62
2018-11-05T12:43:53.147Z,36.90
2018-11-05T12:46:21.235Z,39.83
2018-11-05T12:48:49.307Z,31.80
2018-11-05T12:51:17.436Z,34.00
2018-11-05T12:53:45.556Z,37.03
2018-11-05T12:56:13.877Z,38.73
2018-11-05T12:58:41.958Z,31.57
2018-11-05T13:01:10.093Z,32.58
2018-11-05T13:03:38.184Z,35.88
2018-11-05T13:06:06.228Z,38.40
2018-11-05T13:08:34.489Z,31.68
2018-11-05T13:11:02.596Z,31.52
2018-11-05T13:13:30.660Z,31.45
2018-11-05T13:15:58.715Z,45.73
2018-11-05T13:18:26.840Z,39.38
2018-11-05T13:20:54.918Z,31.75
2018-11-05T13:23:28.307Z,29.85
2018-11-05T13:25:56.380Z,31.30
2018-11-05T13:28:24.574Z,29.52
2018-11-05T13:30:52.569Z,37.13
2018-11-05T13:33:20.642Z,36.85
2018-11-05T13:35:48.701Z,35.17
2018-11-05T13:38:17.363Z,38.55
2018-11-05T13:40:44.819Z,38.53
2018-11-05T13:43:12.891Z,39.35
2018-11-05T13:45:41.406Z,38.67
2018-11-05T13:48:09.284Z,37.38
2018-11-05T13:50:37.099Z,41.85
2018-11-05T13:53:05.212Z,37.28
2018-11-05T13:55:33.276Z,34.00
2018-11-05T13:58:01.357Z,42.43
2018-11-05T14:00:29.436Z,40.58
2018-11-05T14:02:57.544Z,43.92
2018-11-05T14:05:25.609Z,37.45
2018-11-05T14:07:53.684Z,43.63
2018-11-05T14:10:21.898Z,42.55
2018-11-05T14:12:50.569Z,44.65
2018-11-05T14:15:18.589Z,51.20
2018-11-05T14:17:46.895Z,42.90
2018-11-05T14:20:16.003Z,39.05
2018-11-05T14:22:44.132Z,35.20
2018-11-05T14:25:14.439Z,43.48
2018-11-05T14:27:43.723Z,34.20
2018-11-05T14:30:12.638Z,44.42
2018-11-05T14:32:41.753Z,48.45
2018-11-05T14:35:09.841Z,37.88
2018-11-05T14:37:38.025Z,42.88
2018-11-05T14:40:07.106Z,42.20
2018-11-05T14:42:35.249Z,44.50
2018-11-05T14:45:03.316Z,35.75
2018-11-05T14:47:31.384Z,40.92
2018-11-05T14:49:59.448Z,31.20
2018-11-05T14:52:27.554Z,47.03
2018-11-05T14:54:55.658Z,31.40
2018-11-05T14:57:23.753Z,44.75
2018-11-05T14:59:51.773Z,37.38
2018-11-05T15:02:25.432Z,48.13
2018-11-05T15:04:53.541Z,37.25
2018-11-05T15:09:56.057Z,31.02
2018-11-05T15:12:24.120Z,37.60
2018-11-05T15:14:52.191Z,39.10
2018-11-05T15:17:20.253Z,45.35
2018-11-05T15:19:48.678Z,40.20
2018-11-05T15:22:16.392Z,41.13
2018-11-05T15:24:44.460Z,44.60
2018-11-05T15:27:12.521Z,37.90
2018-11-05T15:29:40.749Z,40.17
2018-11-05T15:32:09.957Z,43.50
2018-11-05T15:34:38.072Z,43.40
2018-11-05T15:37:06.161Z,35.90
2018-11-05T15:39:34.337Z,55.03
2018-11-05T15:42:02.481Z,44.75
2018-11-05T15:44:30.626Z,46.40
2018-11-05T15:46:58.797Z,43.95
2018-11-05T15:49:26.882Z,41.92
2018-11-05T15:51:55.209Z,36.60
2018-11-05T15:54:23.199Z,43.02
2018-11-05T15:56:51.177Z,40.03
2018-11-05T15:59:19.254Z,49.13
2018-11-05T16:01:47.413Z,35.63
2018-11-05T16:04:16.008Z,40.83
2018-11-05T16:06:44.823Z,40.58
2018-11-05T16:09:13.064Z,40.52
2018-11-05T16:11:41.529Z,40.12
2018-11-05T16:14:10.782Z,55.48
2018-11-05T16:16:38.886Z,45.73
2018-11-05T16:19:07.448Z,40.55
2018-11-05T16:21:35.595Z,43.00
2018-11-05T16:24:03.664Z,34.63
2018-11-05T16:26:31.901Z,45.10
2018-11-05T16:29:00.044Z,42.50
2018-11-05T16:31:28.140Z,46.53
2018-11-05T16:33:56.204Z,37.40
2018-11-05T16:36:24.351Z,40.63
2018-11-05T16:38:52.439Z,46.13
2018-11-05T16:41:20.751Z,50.12
2018-11-05T16:43:48.829Z,40.17
2018-11-05T16:46:16.910Z,40.20
2018-11-05T16:48:44.972Z,44.23
2018-11-05T16:51:13.044Z,39.13
2018-11-05T16:53:41.141Z,41.18
2018-11-05T16:56:09.155Z,45.12
2018-11-05T16:58:37.260Z,43.52
2018-11-05T17:01:05.937Z,46.63
2018-11-05T17:03:33.905Z,46.77
2018-11-05T17:06:02.001Z,52.80
2018-11-05T17:08:30.284Z,47.13
2018-11-05T17:10:58.397Z,57.05
2018-11-05T17:13:26.574Z,50.73
2018-11-05T17:15:54.551Z,50.80
2018-11-05T17:18:22.632Z,46.50
2018-11-05T17:20:50.732Z,49.35
2018-11-05T17:23:18.803Z,43.52
2018-11-05T17:25:46.885Z,46.70
2018-11-05T17:28:15.016Z,57.40
2018-11-05T17:30:43.103Z,48.60
2018-11-05T17:33:11.180Z,44.55
2018-11-05T17:35:39.304Z,44.95
2018-11-05T17:38:07.385Z,50.48
2018-11-05T17:40:35.457Z,53.20
2018-11-05T17:43:03.544Z,48.85
2018-11-05T17:45:31.620Z,41.30
2018-11-05T17:47:59.741Z,50.55
2018-11-05T17:50:27.816Z,52.67
2018-11-05T17:52:55.889Z,39.58
2018-11-05T17:55:23.960Z,41.30
2018-11-05T17:57:52.051Z,43.25
2018-11-05T18:00:21.347Z,61.10
2018-11-05T18:02:49.433Z,50.40
2018-11-05T18:05:17.513Z,42.93
2018-11-05T18:07:45.712Z,52.10
2018-11-05T18:10:13.804Z,54.30
2018-11-05T18:12:41.908Z,46.23
2018-11-05T18:15:10.949Z,49.65
2018-11-05T18:17:40.212Z,46.00
2018-11-05T18:20:09.589Z,46.35
2018-11-05T18:22:37.732Z,37.38
2018-11-05T18:25:06.846Z,53.45
2018-11-05T18:27:34.955Z,53.17
2018-11-05T18:30:03.038Z,47.67
2018-11-05T18:32:31.124Z,50.23
2018-11-05T18:34:59.276Z,46.37
2018-11-05T18:37:27.396Z,46.35
2018-11-05T18:39:55.488Z,40.03
2018-11-05T18:42:23.550Z,44.65
2018-11-05T18:44:57.501Z,45.08
2018-11-05T18:47:25.612Z,44.95
2018-11-05T18:49:53.711Z,43.70
2018-11-05T18:52:21.785Z,54.38
2018-11-05T18:54:49.967Z,43.20
2018-11-05T18:57:18.118Z,53.15
2018-11-05T18:59:46.221Z,47.40
2018-11-05T19:02:19.801Z,40.95
2018-11-05T19:04:49.066Z,49.27
2018-11-05T19:07:17.182Z,43.13
2018-11-05T19:09:45.273Z,45.75
2018-11-05T19:12:13.340Z,42.50
2018-11-05T19:14:41.416Z,42.93
2018-11-05T19:17:09.487Z,48.55
2018-11-05T19:19:37.669Z,40.83
2018-11-05T19:22:06.078Z,47.15
2018-11-05T19:24:34.812Z,43.78
2018-11-05T19:27:02.634Z,50.80
2018-11-05T19:29:30.708Z,48.87
2018-11-05T19:31:58.812Z,45.00
2018-11-05T19:34:26.936Z,53.55
2018-11-05T19:36:55.028Z,43.70
2018-11-05T19:39:23.095Z,49.40
2018-11-05T19:41:51.197Z,38.85
2018-11-05T19:44:19.241Z,46.58
2018-11-05T19:46:47.340Z,49.40
2018-11-05T19:49:15.419Z,42.60
2018-11-05T19:51:43.539Z,39.15
2018-11-05T19:54:11.598Z,42.93
2018-11-05T19:56:39.964Z,42.33
2018-11-05T19:59:08.089Z,38.58
2018-11-05T20:01:36.209Z,43.60
2018-11-05T20:04:04.497Z,40.90
2018-11-05T20:06:32.586Z,46.80
2018-11-05T20:09:00.651Z,46.92
2018-11-05T20:11:28.725Z,43.80
2018-11-05T20:13:56.786Z,46.02
2018-11-05T20:16:24.848Z,50.12
2018-11-05T20:18:52.972Z,43.02
2018-11-05T20:21:20.989Z,34.95
2018-11-05T20:23:49.129Z,46.63
2018-11-05T20:26:17.193Z,38.92
2018-11-05T20:28:45.419Z,43.73
2018-11-05T20:31:13.678Z,45.70
2018-11-05T20:33:41.792Z,36.33
2018-11-05T20:36:09.729Z,44.50
2018-11-05T20:38:37.783Z,35.13
2018-11-05T20:41:05.866Z,37.67
2018-11-05T20:43:33.931Z,38.30
2018-11-05T20:46:03.472Z,38.80
2018-11-05T20:48:31.564Z,37.98
2018-11-05T20:50:59.623Z,37.13
2018-11-05T20:53:27.724Z,38.30
2018-11-05T20:55:55.776Z,40.17
2018-11-05T20:58:23.837Z,40.92
2018-11-05T21:00:52.865Z,34.60
2018-11-05T21:03:20.901Z,43.92
2018-11-05T21:05:52.858Z,48.70
2018-11-05T21:08:20.920Z,35.78
2018-11-05T21:10:49.033Z,37.93
2018-11-05T21:13:17.113Z,38.15
2018-11-05T21:15:45.195Z,41.58
2018-11-05T21:18:13.257Z,37.48
2018-11-05T21:20:41.327Z,32.83
2018-11-05T21:23:09.401Z,36.88
2018-11-05T21:25:37.523Z,42.98
2018-11-05T21:28:05.905Z,34.13
2018-11-05T21:30:33.957Z,38.75
2018-11-05T21:33:02.124Z,40.98
2018-11-05T21:35:30.123Z,38.88
2018-11-05T21:37:58.216Z,39.08
2018-11-05T21:40:26.336Z,40.70
2018-11-05T21:42:54.408Z,37.98
2018-11-05T21:45:22.482Z,33.67
2018-11-05T21:47:50.744Z,36.17
2018-11-05T21:50:26.340Z,36.93
2018-11-05T21:52:54.815Z,46.88
2018-11-05T21:55:31.364Z,32.90
2018-11-05T21:57:59.426Z,37.93
2018-11-05T22:00:28.808Z,35.78
2018-11-05T22:03:01.247Z,36.17
2018-11-05T22:05:34.243Z,29.12
2018-11-05T22:08:02.360Z,39.20
2018-11-05T22:10:32.148Z,36.55
2018-11-05T22:13:00.204Z,40.58
2018-11-05T22:15:45.741Z,39.63
2018-11-05T22:18:14.291Z,36.70
2018-11-05T22:20:42.368Z,39.23
2018-11-05T22:23:10.459Z,33.67
2018-11-05T22:25:38.892Z,28.25
2018-11-05T22:28:07.105Z,33.48
2018-11-05T22:30:35.220Z,29.65
2018-11-05T22:33:11.793Z,28.60
2018-11-05T22:35:41.248Z,28.52
2018-11-05T22:38:09.345Z,39.33
2018-11-05T22:40:38.777Z,33.15
2018-11-05T22:43:06.856Z,29.98
2018-11-05T22:45:34.944Z,34.43
2018-11-05T22:48:03.035Z,32.28
2018-11-05T22:50:31.201Z,34.35
2018-11-05T22:52:59.168Z,28.27
2018-11-05T22:55:27.259Z,34.73
2018-11-05T22:57:55.455Z,34.65
2018-11-05T23:00:28.834Z,36.38
2018-11-05T23:03:02.280Z,38.42
2018-11-05T23:05:30.393Z,30.25
2018-11-05T23:07:59.279Z,42.67
2018-11-05T23:10:27.412Z,40.75
2018-11-05T23:12:55.568Z,25.23
2018-11-05T23:15:23.642Z,28.73
2018-11-05T23:17:52.018Z,35.17
2018-11-05T23:20:20.076Z,32.13
2018-11-05T23:22:48.196Z,41.98
2018-11-05T23:25:16.260Z,37.83
2018-11-05T23:27:44.321Z,37.93
2018-11-05T23:30:13.280Z,34.15
2018-11-05T23:32:41.544Z,44.42
2018-11-05T23:35:10.445Z,29.70
2018-11-05T23:37:39.615Z,28.75
2018-11-05T23:40:08.196Z,31.40
2018-11-05T23:42:37.306Z,29.50
2018-11-05T23:45:07.118Z,36.05
2018-11-05T23:47:35.187Z,25.43
2018-11-05T23:50:03.300Z,33.28
2018-11-05T23:52:31.363Z,30.17
2018-11-05T23:54:59.437Z,29.42
2018-11-05T23:57:27.490Z,33.28
2018-11-05T23:59:55.577Z,33.40
